sensor_id;sensor_type;location;lat;lon;timestamp;pressure;altitude;pressure_sealevel;temperature;humidity
9235;BME280;4652;42.716;23.218;2022-11-15T00:03:30;95464.13;;;1.09;100.00
9235;BME280;4652;42.716;23.218;2022-11-15T00:10:13;95472.34;;;1.01;100.00
9235;BME280;4652;42.716;23.218;2022-11-15T00:16:55;95473.19;;;0.95;100.00
9235;BME280;4652;42.716;23.218;2022-11-15T00:23:36;95472.16;;;0.96;100.00
9235;BME280;4652;42.716;23.218;2022-11-15T00:30:20;95469.25;;;1.04;100.00
9235;BME280;4652;42.716;23.218;2022-11-15T00:37:01;95456.09;;;0.91;100.00
9235;BME280;4652;42.716;23.218;2022-11-15T00:43:43;95451.97;;;0.95;100.00
9235;BME280;4652;42.716;23.218;2022-11-15T00:50:27;95435.38;;;0.75;100.00
9235;BME280;4652;42.716;23.218;2022-11-15T00:57:08;95445.38;;;0.73;100.00
9235;BME280;4652;42.716;23.218;2022-11-15T01:03:50;95448.19;;;0.78;100.00
9235;BME280;4652;42.716;23.218;2022-11-15T01:10:33;95448.81;;;0.80;100.00
9235;BME280;4652;42.716;23.218;2022-11-15T01:17:15;95449.91;;;0.66;100.00
9235;BME280;4652;42.716;23.218;2022-11-15T01:23:57;95448.44;;;0.70;100.00
9235;BME280;4652;42.716;23.218;2022-11-15T01:30:40;95443.97;;;0.70;100.00
9235;BME280;4652;42.716;23.218;2022-11-15T01:37:22;95433.78;;;0.67;100.00
9235;BME280;4652;42.716;23.218;2022-11-15T01:44:31;95431.63;;;0.57;100.00
9235;BME280;4652;42.716;23.218;2022-11-15T01:51:20;95415.09;;;0.55;100.00
9235;BME280;4652;42.716;23.218;2022-11-15T01:58:04;95431.53;;;0.71;100.00
9235;BME280;4652;42.716;23.218;2022-11-15T02:08:06;95406.38;;;0.48;100.00
9235;BME280;4652;42.716;23.218;2022-11-15T02:14:51;95422.59;;;0.65;100.00
9235;BME280;4652;42.716;23.218;2022-11-15T02:21:37;95422.78;;;0.64;100.00
9235;BME280;4652;42.716;23.218;2022-11-15T02:28:46;95405.97;;;0.51;100.00
9235;BME280;4652;42.716;23.218;2022-11-15T02:35:39;95422.75;;;0.70;100.00
9235;BME280;4652;42.716;23.218;2022-11-15T02:42:27;95402.06;;;0.54;100.00
9235;BME280;4652;42.716;23.218;2022-11-15T02:49:32;95415.97;;;0.49;100.00
9235;BME280;4652;42.716;23.218;2022-11-15T02:56:16;95422.88;;;0.50;100.00
9235;BME280;4652;42.716;23.218;2022-11-15T03:03:17;95397.38;;;0.18;100.00
9235;BME280;4652;42.716;23.218;2022-11-15T03:10:07;95402.34;;;0.46;100.00
9235;BME280;4652;42.716;23.218;2022-11-15T03:16:58;95417.50;;;0.64;100.00
9235;BME280;4652;42.716;23.218;2022-11-15T03:23:43;95406.13;;;0.56;100.00
9235;BME280;4652;42.716;23.218;2022-11-15T03:30:26;95402.03;;;0.92;100.00
9235;BME280;4652;42.716;23.218;2022-11-15T03:37:13;95395.81;;;1.29;100.00
9235;BME280;4652;42.716;23.218;2022-11-15T03:43:59;95381.09;;;1.33;100.00
9235;BME280;4652;42.716;23.218;2022-11-15T03:50:46;95380.19;;;1.64;100.00
9235;BME280;4652;42.716;23.218;2022-11-15T03:57:30;95359.47;;;1.72;100.00
9235;BME280;4652;42.716;23.218;2022-11-15T04:04:13;95377.16;;;1.97;100.00
9235;BME280;4652;42.716;23.218;2022-11-15T04:10:54;95370.97;;;2.21;100.00
9235;BME280;4652;42.716;23.218;2022-11-15T04:17:40;95360.91;;;2.23;100.00
9235;BME280;4652;42.716;23.218;2022-11-15T04:24:22;95373.66;;;2.32;100.00
9235;BME280;4652;42.716;23.218;2022-11-15T04:31:04;95353.47;;;2.43;100.00
9235;BME280;4652;42.716;23.218;2022-11-15T04:37:47;95365.47;;;2.64;100.00
9235;BME280;4652;42.716;23.218;2022-11-15T04:44:29;95374.78;;;2.84;100.00
9235;BME280;4652;42.716;23.218;2022-11-15T04:51:11;95362.41;;;2.90;100.00
9235;BME280;4652;42.716;23.218;2022-11-15T04:57:59;95383.38;;;3.10;100.00
9235;BME280;4652;42.716;23.218;2022-11-15T05:04:41;95351.69;;;3.08;100.00
9235;BME280;4652;42.716;23.218;2022-11-15T05:11:23;95367.44;;;3.33;100.00
9235;BME280;4652;42.716;23.218;2022-11-15T05:18:07;95371.50;;;3.35;100.00
9235;BME280;4652;42.716;23.218;2022-11-15T05:24:49;95351.13;;;3.41;100.00
9235;BME280;4652;42.716;23.218;2022-11-15T05:31:31;95363.41;;;3.65;100.00
9235;BME280;4652;42.716;23.218;2022-11-15T05:38:15;95344.31;;;3.45;100.00
9235;BME280;4652;42.716;23.218;2022-11-15T05:44:57;95375.56;;;3.61;100.00
9235;BME280;4652;42.716;23.218;2022-11-15T05:51:41;95394.09;;;3.56;100.00
9235;BME280;4652;42.716;23.218;2022-11-15T05:58:27;95400.78;;;3.47;100.00
9235;BME280;4652;42.716;23.218;2022-11-15T06:05:09;95394.41;;;3.60;100.00
9235;BME280;4652;42.716;23.218;2022-11-15T06:11:51;95395.59;;;3.64;100.00
9235;BME280;4652;42.716;23.218;2022-11-15T06:18:34;95393.84;;;3.69;100.00
9235;BME280;4652;42.716;23.218;2022-11-15T06:25:17;95369.88;;;3.58;100.00
9235;BME280;4652;42.716;23.218;2022-11-15T06:31:59;95383.88;;;3.99;100.00
9235;BME280;4652;42.716;23.218;2022-11-15T06:38:42;95387.56;;;3.98;100.00
9235;BME280;4652;42.716;23.218;2022-11-15T06:45:24;95373.41;;;4.09;100.00
9235;BME280;4652;42.716;23.218;2022-11-15T06:52:06;95388.09;;;4.24;100.00
9235;BME280;4652;42.716;23.218;2022-11-15T06:58:49;95383.66;;;4.41;100.00
9235;BME280;4652;42.716;23.218;2022-11-15T07:05:32;95369.09;;;4.60;100.00
9235;BME280;4652;42.716;23.218;2022-11-15T07:12:14;95374.81;;;4.80;100.00
9235;BME280;4652;42.716;23.218;2022-11-15T07:18:57;95370.50;;;4.79;100.00
9235;BME280;4652;42.716;23.218;2022-11-15T07:25:39;95382.94;;;4.73;100.00
9235;BME280;4652;42.716;23.218;2022-11-15T07:32:21;95377.59;;;5.02;100.00
9235;BME280;4652;42.716;23.218;2022-11-15T07:39:05;95369.94;;;5.05;100.00
9235;BME280;4652;42.716;23.218;2022-11-15T07:45:47;95372.59;;;5.39;100.00
9235;BME280;4652;42.716;23.218;2022-11-15T07:52:29;95374.22;;;5.40;100.00
9235;BME280;4652;42.716;23.218;2022-11-15T07:59:12;95364.69;;;5.44;100.00
9235;BME280;4652;42.716;23.218;2022-11-15T08:08:05;95359.63;;;5.47;100.00
9235;BME280;4652;42.716;23.218;2022-11-15T08:14:47;95352.50;;;5.53;100.00
9235;BME280;4652;42.716;23.218;2022-11-15T08:21:29;95345.06;;;5.88;100.00
9235;BME280;4652;42.716;23.218;2022-11-15T08:28:13;95344.19;;;6.04;100.00
9235;BME280;4652;42.716;23.218;2022-11-15T08:34:57;95334.44;;;5.93;100.00
9235;BME280;4652;42.716;23.218;2022-11-15T08:41:39;95302.84;;;5.52;100.00
9235;BME280;4652;42.716;23.218;2022-11-15T08:48:23;95336.34;;;5.98;100.00
9235;BME280;4652;42.716;23.218;2022-11-15T08:55:05;95322.25;;;6.24;100.00
9235;BME280;4652;42.716;23.218;2022-11-15T09:01:48;95313.44;;;6.50;100.00
9235;BME280;4652;42.716;23.218;2022-11-15T09:08:31;95273.63;;;6.54;100.00
9235;BME280;4652;42.716;23.218;2022-11-15T09:15:13;95292.81;;;6.72;100.00
9235;BME280;4652;42.716;23.218;2022-11-15T09:21:55;95269.75;;;6.71;100.00
9235;BME280;4652;42.716;23.218;2022-11-15T09:28:38;95272.56;;;6.55;100.00
9235;BME280;4652;42.716;23.218;2022-11-15T09:35:22;95280.34;;;6.29;100.00
9235;BME280;4652;42.716;23.218;2022-11-15T09:42:21;95254.22;;;6.41;100.00
9235;BME280;4652;42.716;23.218;2022-11-15T09:49:08;95258.66;;;6.58;100.00
9235;BME280;4652;42.716;23.218;2022-11-15T09:55:55;95233.81;;;6.89;100.00
9235;BME280;4652;42.716;23.218;2022-11-15T10:02:54;95239.72;;;6.96;100.00
9235;BME280;4652;42.716;23.218;2022-11-15T10:09:59;95230.84;;;6.90;100.00
9235;BME280;4652;42.716;23.218;2022-11-15T10:17:18;95218.59;;;6.63;100.00
9235;BME280;4652;42.716;23.218;2022-11-15T10:24:19;95215.00;;;6.79;100.00
9235;BME280;4652;42.716;23.218;2022-11-15T10:31:21;95191.19;;;7.19;100.00
9235;BME280;4652;42.716;23.218;2022-11-15T10:38:08;95171.66;;;7.86;100.00
9235;BME280;4652;42.716;23.218;2022-11-15T10:44:50;95139.78;;;7.94;100.00
9235;BME280;4652;42.716;23.218;2022-11-15T10:51:33;95155.03;;;7.84;100.00
9235;BME280;4652;42.716;23.218;2022-11-15T10:58:30;95120.31;;;8.39;100.00
9235;BME280;4652;42.716;23.218;2022-11-15T11:05:26;95123.25;;;8.53;100.00
9235;BME280;4652;42.716;23.218;2022-11-15T11:12:11;95074.91;;;8.17;100.00
9235;BME280;4652;42.716;23.218;2022-11-15T11:19:03;95111.16;;;8.20;100.00
9235;BME280;4652;42.716;23.218;2022-11-15T11:25:53;95098.53;;;8.25;100.00
9235;BME280;4652;42.716;23.218;2022-11-15T11:40:13;95048.66;;;8.55;100.00
9235;BME280;4652;42.716;23.218;2022-11-15T11:47:00;95030.94;;;8.64;100.00
9235;BME280;4652;42.716;23.218;2022-11-15T11:53:47;95033.63;;;8.44;100.00
9235;BME280;4652;42.716;23.218;2022-11-15T12:00:38;94987.22;;;8.08;100.00
9235;BME280;4652;42.716;23.218;2022-11-15T12:07:24;95015.13;;;8.17;100.00
9235;BME280;4652;42.716;23.218;2022-11-15T12:14:12;95000.88;;;8.21;100.00
9235;BME280;4652;42.716;23.218;2022-11-15T12:21:02;94979.19;;;8.08;100.00
9235;BME280;4652;42.716;23.218;2022-11-15T12:27:51;94987.44;;;8.57;100.00
9235;BME280;4652;42.716;23.218;2022-11-15T12:34:41;94990.94;;;8.52;100.00
9235;BME280;4652;42.716;23.218;2022-11-15T12:41:26;94978.06;;;8.54;100.00
9235;BME280;4652;42.716;23.218;2022-11-15T12:55:30;94968.13;;;8.55;100.00
9235;BME280;4652;42.716;23.218;2022-11-15T13:02:19;94949.94;;;8.21;100.00
9235;BME280;4652;42.716;23.218;2022-11-15T13:09:02;94947.00;;;8.08;100.00
9235;BME280;4652;42.716;23.218;2022-11-15T13:15:52;94934.13;;;8.05;100.00
9235;BME280;4652;42.716;23.218;2022-11-15T13:22:42;94927.66;;;8.16;100.00
9235;BME280;4652;42.716;23.218;2022-11-15T13:29:35;94931.94;;;8.37;100.00
9235;BME280;4652;42.716;23.218;2022-11-15T13:36:19;94909.44;;;8.28;100.00
9235;BME280;4652;42.716;23.218;2022-11-15T13:43:31;94910.25;;;8.34;100.00
9235;BME280;4652;42.716;23.218;2022-11-15T13:50:13;94932.78;;;8.27;100.00
9235;BME280;4652;42.716;23.218;2022-11-15T13:57:00;94922.88;;;7.83;100.00
9235;BME280;4652;42.716;23.218;2022-11-15T14:08:20;94924.78;;;7.72;100.00
9235;BME280;4652;42.716;23.218;2022-11-15T20:08:06;94809.31;;;2.45;100.00
9235;BME280;4652;42.716;23.218;2022-11-15T20:14:48;94844.56;;;2.85;100.00
9235;BME280;4652;42.716;23.218;2022-11-15T20:21:29;94857.25;;;3.12;100.00
9235;BME280;4652;42.716;23.218;2022-11-15T20:28:15;94845.84;;;3.33;100.00
9235;BME280;4652;42.716;23.218;2022-11-15T20:34:57;94845.03;;;3.32;100.00
9235;BME280;4652;42.716;23.218;2022-11-15T20:41:39;94837.03;;;3.49;100.00
9235;BME280;4652;42.716;23.218;2022-11-15T20:48:23;94816.97;;;3.41;100.00
9235;BME280;4652;42.716;23.218;2022-11-15T20:55:05;94804.84;;;3.67;100.00
9235;BME280;4652;42.716;23.218;2022-11-15T21:01:47;94799.69;;;3.82;100.00
9235;BME280;4652;42.716;23.218;2022-11-15T21:08:30;94790.72;;;3.88;100.00
9235;BME280;4652;42.716;23.218;2022-11-15T21:15:33;94774.25;;;3.91;100.00
9235;BME280;4652;42.716;23.218;2022-11-15T21:22:14;94783.22;;;3.85;100.00
9235;BME280;4652;42.716;23.218;2022-11-15T21:28:58;94767.78;;;3.87;100.00
9235;BME280;4652;42.716;23.218;2022-11-15T21:35:40;94775.59;;;3.94;100.00
9235;BME280;4652;42.716;23.218;2022-11-15T21:42:22;94765.13;;;3.87;100.00
9235;BME280;4652;42.716;23.218;2022-11-15T21:49:05;94755.41;;;3.76;100.00
9235;BME280;4652;42.716;23.218;2022-11-15T21:55:47;94754.84;;;3.74;100.00
9235;BME280;4652;42.716;23.218;2022-11-15T22:02:29;94751.19;;;3.80;100.00
9235;BME280;4652;42.716;23.218;2022-11-15T22:09:12;94745.25;;;3.73;100.00
9235;BME280;4652;42.716;23.218;2022-11-15T22:15:54;94720.84;;;3.38;100.00
9235;BME280;4652;42.716;23.218;2022-11-15T22:22:36;94721.84;;;3.53;100.00
9235;BME280;4652;42.716;23.218;2022-11-15T22:29:19;94710.84;;;3.45;100.00
9235;BME280;4652;42.716;23.218;2022-11-15T22:36:03;94711.34;;;3.42;100.00
9235;BME280;4652;42.716;23.218;2022-11-15T22:42:45;94683.03;;;3.14;100.00
9235;BME280;4652;42.716;23.218;2022-11-15T22:49:29;94687.72;;;3.07;100.00
9235;BME280;4652;42.716;23.218;2022-11-15T22:56:11;94691.75;;;3.10;100.00
9235;BME280;4652;42.716;23.218;2022-11-15T23:02:53;94692.50;;;3.05;100.00
9235;BME280;4652;42.716;23.218;2022-11-15T23:09:37;94673.16;;;2.93;100.00
9235;BME280;4652;42.716;23.218;2022-11-15T23:16:19;94684.53;;;2.88;100.00
9235;BME280;4652;42.716;23.218;2022-11-15T23:23:05;94667.97;;;2.81;100.00
9235;BME280;4652;42.716;23.218;2022-11-15T23:29:48;94686.00;;;2.79;100.00
9235;BME280;4652;42.716;23.218;2022-11-15T23:36:48;94682.78;;;2.77;100.00
9235;BME280;4652;42.716;23.218;2022-11-15T23:43:30;94627.13;;;2.71;100.00
9235;BME280;4652;42.716;23.218;2022-11-15T23:50:13;94650.09;;;2.98;100.00
9235;BME280;4652;42.716;23.218;2022-11-15T23:56:56;94648.03;;;3.01;100.00
